createdAt,value
2019-03-09T00:01:59.371Z,3.60
2019-03-09T00:04:27.481Z,1.37
2019-03-09T00:07:01.342Z,2.07
2019-03-09T00:09:29.444Z,1.90
2019-03-09T00:11:57.827Z,1.50
2019-03-09T00:14:26.217Z,1.60
2019-03-09T00:16:54.316Z,2.07
2019-03-09T00:19:22.685Z,2.20
2019-03-09T00:21:50.825Z,2.50
2019-03-09T00:24:20.572Z,1.70
2019-03-09T00:26:53.338Z,2.40
2019-03-09T00:29:23.111Z,2.20
2019-03-09T00:31:52.932Z,2.43
2019-03-09T00:34:21.352Z,1.70
2019-03-09T00:36:49.464Z,2.10
2019-03-09T00:39:17.635Z,2.07
2019-03-09T00:41:45.824Z,2.10
2019-03-09T00:44:13.952Z,1.93
2019-03-09T00:46:42.124Z,2.93
2019-03-09T00:49:11.339Z,3.13
2019-03-09T00:51:39.804Z,2.90
2019-03-09T00:54:07.992Z,2.70
2019-03-09T00:56:36.096Z,2.67
2019-03-09T00:59:04.394Z,2.83
2019-03-09T01:01:32.527Z,2.30
2019-03-09T01:04:00.737Z,3.60
2019-03-09T01:06:28.846Z,2.30
2019-03-09T01:08:56.976Z,2.37
2019-03-09T01:11:25.348Z,3.07
2019-03-09T01:13:53.471Z,2.13
2019-03-09T01:16:21.652Z,2.33
2019-03-09T01:18:49.789Z,2.97
2019-03-09T01:21:17.897Z,3.03
2019-03-09T01:23:46.096Z,3.23
2019-03-09T01:26:14.207Z,2.47
2019-03-09T01:28:42.343Z,3.17
2019-03-09T01:31:10.537Z,2.87
2019-03-09T01:33:38.656Z,2.47
2019-03-09T01:36:06.777Z,2.43
2019-03-09T01:38:34.995Z,2.40
2019-03-09T01:41:03.185Z,2.27
2019-03-09T01:43:31.735Z,1.70
2019-03-09T01:46:00.162Z,2.63
2019-03-09T01:48:28.265Z,2.03
2019-03-09T01:50:56.422Z,2.43
2019-03-09T01:53:24.524Z,2.00
2019-03-09T01:55:52.656Z,2.00
2019-03-09T01:58:20.772Z,2.10
2019-03-09T02:00:48.940Z,2.47
2019-03-09T02:03:17.067Z,1.80
2019-03-09T02:05:45.277Z,2.00
2019-03-09T02:08:13.376Z,1.67
2019-03-09T02:10:41.525Z,2.20
2019-03-09T02:13:09.695Z,2.67
2019-03-09T02:15:37.901Z,1.90
2019-03-09T02:18:06.185Z,1.73
2019-03-09T02:20:34.380Z,1.83
2019-03-09T02:23:02.492Z,1.57
2019-03-09T02:25:30.989Z,1.77
2019-03-09T02:27:59.083Z,1.60
2019-03-09T02:30:27.226Z,2.10
2019-03-09T02:32:55.418Z,2.20
2019-03-09T02:35:23.604Z,2.10
2019-03-09T02:37:51.865Z,2.00
2019-03-09T02:40:24.307Z,1.40
2019-03-09T02:42:52.417Z,1.83
2019-03-09T02:45:21.880Z,1.77
2019-03-09T02:47:49.983Z,2.20
2019-03-09T02:50:18.092Z,2.03
2019-03-09T02:52:46.394Z,2.33
2019-03-09T02:55:14.576Z,2.30
2019-03-09T02:57:42.868Z,1.93
2019-03-09T03:00:15.424Z,1.93
2019-03-09T03:02:48.176Z,2.07
2019-03-09T03:05:16.351Z,1.90
2019-03-09T03:07:44.550Z,1.60
2019-03-09T03:10:12.722Z,1.53
2019-03-09T03:12:40.851Z,1.50
2019-03-09T03:15:10.248Z,1.40
2019-03-09T03:17:38.368Z,1.57
2019-03-09T03:20:07.639Z,1.50
2019-03-09T03:22:35.769Z,1.27
2019-03-09T03:25:05.049Z,1.10
2019-03-09T03:27:33.172Z,1.30
2019-03-09T03:30:01.273Z,1.30
2019-03-09T03:32:31.048Z,1.30
2019-03-09T03:34:59.148Z,1.30
2019-03-09T03:37:27.268Z,1.03
2019-03-09T03:39:55.392Z,0.83
2019-03-09T03:42:23.689Z,1.50
2019-03-09T03:44:51.793Z,1.17
2019-03-09T03:47:19.939Z,1.30
2019-03-09T03:49:48.198Z,1.00
2019-03-09T03:52:16.405Z,0.93
2019-03-09T03:54:44.606Z,0.97
2019-03-09T03:57:12.717Z,1.00
2019-03-09T03:59:40.930Z,1.20
2019-03-09T04:02:09.096Z,0.97
2019-03-09T04:04:37.233Z,0.80
2019-03-09T04:07:05.614Z,0.90
2019-03-09T04:09:33.741Z,1.00
2019-03-09T04:12:02.118Z,0.83
2019-03-09T04:14:30.326Z,1.10
2019-03-09T04:16:58.446Z,1.30
2019-03-09T04:19:26.584Z,1.13
2019-03-09T04:21:54.758Z,1.40
2019-03-09T04:24:22.964Z,1.73
2019-03-09T04:26:51.078Z,1.50
2019-03-09T04:29:19.290Z,1.67
2019-03-09T04:31:47.394Z,1.57
2019-03-09T04:34:15.514Z,2.23
2019-03-09T04:36:43.649Z,2.00
2019-03-09T04:39:11.752Z,2.90
2019-03-09T04:41:39.891Z,2.70
2019-03-09T04:44:08.069Z,3.00
2019-03-09T04:46:36.196Z,2.30
2019-03-09T04:49:04.341Z,3.70
2019-03-09T04:51:32.523Z,3.37
2019-03-09T04:54:00.682Z,3.20
2019-03-09T04:56:28.802Z,3.43
2019-03-09T04:58:56.915Z,3.63
2019-03-09T05:01:25.041Z,2.93
2019-03-09T05:04:11.133Z,3.83
2019-03-09T05:06:39.274Z,3.50
2019-03-09T05:09:08.916Z,3.70
2019-03-09T05:11:38.052Z,3.93
2019-03-09T05:14:06.329Z,3.97
2019-03-09T05:16:34.481Z,3.77
2019-03-09T05:19:02.579Z,3.77
2019-03-09T05:21:30.707Z,3.60
2019-03-09T05:23:58.807Z,3.90
2019-03-09T05:26:26.944Z,3.97
2019-03-09T05:28:55.049Z,3.37
2019-03-09T05:31:23.172Z,3.70
2019-03-09T05:33:51.277Z,3.77
2019-03-09T05:36:19.401Z,3.83
2019-03-09T05:38:47.509Z,3.90
2019-03-09T05:41:15.670Z,4.00
2019-03-09T05:43:43.832Z,3.57
2019-03-09T05:46:11.957Z,3.47
2019-03-09T05:48:40.063Z,3.30
2019-03-09T05:51:08.196Z,3.73
2019-03-09T05:53:36.300Z,3.90
2019-03-09T05:56:04.476Z,4.40
2019-03-09T05:58:32.602Z,4.60
2019-03-09T06:01:00.706Z,4.27
2019-03-09T06:03:28.828Z,4.53
2019-03-09T06:05:57.112Z,4.63
2019-03-09T06:08:25.261Z,4.17
2019-03-09T06:10:53.363Z,4.17
2019-03-09T06:13:21.496Z,4.00
2019-03-09T06:15:49.604Z,4.03
2019-03-09T06:18:17.728Z,4.53
2019-03-09T06:20:45.833Z,5.07
2019-03-09T06:23:13.957Z,4.60
2019-03-09T06:25:42.059Z,4.33
2019-03-09T06:28:10.184Z,4.90
2019-03-09T06:30:38.287Z,4.60
2019-03-09T06:33:19.758Z,4.13
2019-03-09T06:35:49.337Z,4.67
2019-03-09T06:38:21.712Z,4.80
2019-03-09T06:40:49.900Z,4.30
2019-03-09T06:43:18.074Z,3.90
2019-03-09T06:45:46.264Z,4.30
2019-03-09T06:48:14.368Z,3.57
2019-03-09T06:50:42.491Z,4.33
2019-03-09T06:53:10.680Z,3.73
2019-03-09T06:55:38.813Z,3.97
2019-03-09T06:58:06.919Z,3.43
2019-03-09T07:00:36.045Z,3.40
2019-03-09T07:03:04.676Z,4.10
2019-03-09T07:05:32.800Z,3.70
2019-03-09T07:08:00.924Z,3.77
2019-03-09T07:10:29.220Z,3.17
2019-03-09T07:12:57.323Z,3.60
2019-03-09T07:15:32.530Z,4.07
2019-03-09T07:18:02.005Z,3.70
2019-03-09T07:20:30.199Z,3.37
2019-03-09T07:22:58.309Z,4.10
2019-03-09T07:25:26.440Z,3.20
2019-03-09T07:27:58.655Z,3.53
2019-03-09T07:30:26.890Z,3.70
2019-03-09T07:32:55.045Z,4.23
2019-03-09T07:35:23.149Z,3.73
2019-03-09T07:37:51.271Z,3.53
2019-03-09T07:40:19.453Z,4.30
2019-03-09T07:42:47.584Z,3.90
2019-03-09T07:45:15.719Z,3.90
2019-03-09T07:47:43.923Z,3.60
2019-03-09T07:50:13.101Z,3.03
2019-03-09T07:52:41.227Z,3.00
2019-03-09T07:55:13.084Z,4.00
2019-03-09T07:57:41.282Z,3.30
2019-03-09T08:00:10.773Z,2.63
2019-03-09T08:02:38.900Z,3.20
2019-03-09T08:05:07.506Z,3.20
2019-03-09T08:07:35.632Z,3.37
2019-03-09T08:10:04.732Z,2.80
2019-03-09T08:12:33.177Z,3.23
2019-03-09T08:15:01.369Z,3.37
2019-03-09T08:17:29.494Z,3.03
2019-03-09T08:19:57.595Z,3.40
2019-03-09T08:22:25.715Z,3.00
2019-03-09T08:24:53.834Z,2.70
2019-03-09T08:27:21.966Z,3.30
2019-03-09T08:29:50.065Z,2.70
2019-03-09T08:32:18.248Z,3.60
2019-03-09T08:34:46.447Z,2.90
2019-03-09T08:37:14.745Z,2.57
2019-03-09T08:39:42.925Z,3.00
2019-03-09T08:42:11.071Z,3.00
2019-03-09T08:44:39.227Z,2.80
2019-03-09T08:47:07.404Z,2.40
2019-03-09T08:49:35.609Z,2.77
2019-03-09T08:52:03.781Z,2.70
2019-03-09T08:54:31.961Z,2.33
2019-03-09T08:57:00.069Z,2.50
2019-03-09T08:59:28.201Z,2.23
2019-03-09T09:01:56.308Z,3.67
2019-03-09T09:04:24.891Z,3.13
2019-03-09T09:06:52.996Z,2.50
2019-03-09T09:09:21.441Z,2.93
2019-03-09T09:11:49.553Z,2.93
2019-03-09T09:14:17.717Z,2.43
2019-03-09T09:16:45.893Z,2.50
2019-03-09T09:19:15.664Z,2.73
2019-03-09T09:21:43.760Z,2.53
2019-03-09T09:24:11.892Z,2.70
2019-03-09T09:26:40.090Z,2.00
2019-03-09T09:29:08.221Z,2.47
2019-03-09T09:31:36.625Z,2.03
2019-03-09T09:34:04.893Z,2.43
2019-03-09T09:36:33.461Z,2.20
2019-03-09T09:39:01.617Z,2.40
2019-03-09T09:41:29.725Z,2.10
2019-03-09T09:43:58.055Z,2.63
2019-03-09T09:46:26.167Z,2.30
2019-03-09T09:48:54.284Z,1.77
2019-03-09T09:51:22.421Z,2.20
2019-03-09T09:53:50.534Z,1.70
2019-03-09T09:56:18.670Z,1.73
2019-03-09T09:58:46.788Z,1.60
2019-03-09T10:01:14.921Z,2.07
2019-03-09T10:03:43.031Z,2.37
2019-03-09T10:06:11.172Z,1.70
2019-03-09T10:08:39.280Z,1.60
2019-03-09T10:11:07.471Z,1.70
2019-03-09T10:13:35.597Z,1.40
2019-03-09T10:16:03.809Z,1.67
2019-03-09T10:18:31.927Z,1.47
2019-03-09T10:21:00.065Z,2.10
2019-03-09T10:23:28.346Z,1.83
2019-03-09T10:25:56.467Z,1.77
2019-03-09T10:28:24.585Z,1.80
2019-03-09T10:30:52.721Z,1.63
2019-03-09T10:33:20.821Z,1.47
2019-03-09T10:35:48.960Z,1.43
2019-03-09T10:38:17.113Z,2.10
2019-03-09T10:40:45.232Z,1.60
2019-03-09T10:43:13.419Z,1.27
2019-03-09T10:45:41.532Z,1.30
2019-03-09T10:48:09.656Z,1.57
2019-03-09T10:50:37.759Z,1.63
2019-03-09T10:53:05.892Z,0.73
2019-03-09T10:55:34.689Z,1.37
2019-03-09T10:58:02.937Z,1.50
2019-03-09T11:00:40.701Z,1.57
2019-03-09T11:03:08.901Z,1.20
2019-03-09T11:05:37.082Z,1.50
2019-03-09T11:08:05.385Z,1.57
2019-03-09T11:10:33.500Z,1.80
2019-03-09T11:13:01.642Z,1.40
2019-03-09T11:15:29.751Z,1.30
2019-03-09T11:17:57.856Z,1.87
2019-03-09T11:20:26.092Z,1.87
2019-03-09T11:22:54.202Z,1.20
2019-03-09T11:25:22.343Z,1.20
2019-03-09T11:27:50.528Z,1.40
2019-03-09T11:30:20.260Z,2.03
2019-03-09T11:32:48.620Z,1.10
2019-03-09T11:35:16.829Z,1.50
2019-03-09T11:37:44.931Z,1.30
2019-03-09T11:40:13.328Z,1.43
2019-03-09T11:42:41.441Z,1.50
2019-03-09T11:45:11.040Z,1.63
2019-03-09T11:47:39.149Z,1.20
2019-03-09T11:50:08.657Z,2.00
2019-03-09T11:52:36.827Z,1.77
2019-03-09T11:55:06.364Z,1.70
2019-03-09T11:57:34.467Z,1.50
2019-03-09T12:00:02.661Z,1.70
2019-03-09T12:02:38.601Z,1.50
2019-03-09T12:05:00.675Z,2.10
2019-03-09T12:07:28.802Z,2.13
2019-03-09T12:09:56.989Z,1.57
2019-03-09T12:12:25.153Z,1.73
2019-03-09T12:14:53.341Z,1.60
2019-03-09T12:17:21.540Z,2.33
2019-03-09T12:19:49.659Z,1.60
2019-03-09T12:22:17.785Z,1.50
2019-03-09T12:24:47.453Z,1.60
2019-03-09T12:27:15.664Z,1.80
2019-03-09T12:29:43.774Z,1.87
2019-03-09T12:32:11.908Z,0.97
2019-03-09T12:34:40.011Z,1.50
2019-03-09T12:37:08.149Z,1.60
2019-03-09T12:39:36.268Z,1.10
2019-03-09T12:42:04.410Z,2.10
2019-03-09T12:44:32.517Z,1.57
2019-03-09T12:47:00.648Z,1.70
2019-03-09T12:49:28.751Z,2.10
2019-03-09T12:51:56.960Z,2.37
2019-03-09T12:54:25.072Z,1.93
2019-03-09T12:56:53.205Z,2.63
2019-03-09T12:59:21.349Z,2.50
2019-03-09T13:01:49.532Z,2.10
2019-03-09T13:04:17.664Z,2.67
2019-03-09T13:06:45.783Z,2.80
2019-03-09T13:09:14.256Z,2.33
2019-03-09T13:11:42.369Z,2.50
2019-03-09T13:14:10.508Z,2.53
2019-03-09T13:16:44.533Z,3.03
2019-03-09T13:19:12.707Z,2.70
2019-03-09T13:21:40.820Z,2.60
2019-03-09T13:24:09.019Z,2.93
2019-03-09T13:26:37.127Z,3.27
2019-03-09T13:29:05.262Z,3.57
2019-03-09T13:31:33.440Z,3.17
2019-03-09T13:34:01.595Z,2.67
2019-03-09T13:36:29.755Z,4.80
2019-03-09T13:38:57.873Z,2.77
2019-03-09T13:41:26.014Z,3.90
2019-03-09T13:43:54.200Z,4.03
2019-03-09T13:46:22.362Z,4.23
2019-03-09T13:48:50.993Z,4.47
2019-03-09T13:51:19.131Z,4.10
2019-03-09T13:53:47.236Z,4.50
2019-03-09T13:56:15.379Z,4.20
2019-03-09T13:58:43.615Z,3.83
2019-03-09T14:01:11.863Z,4.77
2019-03-09T14:03:39.984Z,3.87
2019-03-09T14:06:08.103Z,4.47
2019-03-09T14:08:36.277Z,4.83
2019-03-09T14:11:04.408Z,4.33
2019-03-09T14:13:32.589Z,5.60
2019-03-09T14:16:00.799Z,4.80
2019-03-09T14:18:28.997Z,4.50
2019-03-09T14:20:57.141Z,4.37
2019-03-09T14:23:25.274Z,4.53
2019-03-09T14:25:53.396Z,4.47
2019-03-09T14:28:21.547Z,3.90
2019-03-09T14:30:49.685Z,3.60
2019-03-09T14:33:17.791Z,4.20
2019-03-09T14:35:45.929Z,4.40
2019-03-09T14:38:14.061Z,4.20
2019-03-09T14:40:42.177Z,3.90
2019-03-09T14:43:10.311Z,3.53
2019-03-09T14:45:38.420Z,4.00
2019-03-09T14:48:08.052Z,3.57
2019-03-09T14:50:36.169Z,3.70
2019-03-09T14:53:04.307Z,4.00
2019-03-09T14:55:32.524Z,4.33
2019-03-09T14:58:00.669Z,3.87
2019-03-09T15:00:28.784Z,4.07
2019-03-09T15:02:56.912Z,4.80
2019-03-09T15:05:25.105Z,3.77
2019-03-09T15:07:53.297Z,3.90
2019-03-09T15:10:21.412Z,3.77
2019-03-09T15:12:49.640Z,3.10
2019-03-09T15:15:18.425Z,3.47
2019-03-09T15:17:46.528Z,3.80
2019-03-09T15:20:15.245Z,3.43
2019-03-09T15:22:43.501Z,3.77
2019-03-09T15:25:12.792Z,3.63
2019-03-09T15:27:40.907Z,3.23
2019-03-09T15:30:10.580Z,3.10
2019-03-09T15:32:38.702Z,2.53
2019-03-09T15:35:07.763Z,2.60
2019-03-09T15:37:35.867Z,3.83
2019-03-09T15:40:05.564Z,3.40
2019-03-09T15:42:33.689Z,3.20
2019-03-09T15:45:01.842Z,3.10
2019-03-09T15:47:30.110Z,2.80
2019-03-09T15:49:58.263Z,2.83
2019-03-09T15:52:26.364Z,3.17
2019-03-09T15:54:54.590Z,3.27
2019-03-09T15:57:22.772Z,3.37
2019-03-09T15:59:50.893Z,3.03
2019-03-09T16:02:19.000Z,4.10
2019-03-09T16:04:47.128Z,2.80
2019-03-09T16:07:15.329Z,3.70
2019-03-09T16:09:43.525Z,3.30
2019-03-09T16:12:11.662Z,3.57
2019-03-09T16:14:39.763Z,3.47
2019-03-09T16:17:08.024Z,3.40
2019-03-09T16:19:36.136Z,3.00
2019-03-09T16:22:04.332Z,3.53
2019-03-09T16:24:32.514Z,2.90
2019-03-09T16:27:00.647Z,2.50
2019-03-09T16:29:28.772Z,2.40
2019-03-09T16:31:56.920Z,2.07
2019-03-09T16:34:25.104Z,2.70
2019-03-09T16:36:53.341Z,2.93
2019-03-09T16:39:21.508Z,3.17
2019-03-09T16:41:50.001Z,2.77
2019-03-09T16:44:18.584Z,3.57
2019-03-09T16:46:48.179Z,3.13
2019-03-09T16:49:16.692Z,3.70
2019-03-09T16:51:45.083Z,3.80
2019-03-09T16:54:13.188Z,3.20
2019-03-09T16:56:41.320Z,3.10
2019-03-09T16:59:09.427Z,4.00
2019-03-09T17:01:37.567Z,3.50
2019-03-09T17:04:05.688Z,3.70
2019-03-09T17:06:33.809Z,3.70
2019-03-09T17:09:01.999Z,4.17
2019-03-09T17:11:30.179Z,3.70
2019-03-09T17:14:01.234Z,3.97
2019-03-09T17:16:29.341Z,4.37
2019-03-09T17:18:57.477Z,4.27
2019-03-09T17:21:25.657Z,4.23
2019-03-09T17:23:53.849Z,3.67
2019-03-09T17:26:22.020Z,3.70
2019-03-09T17:28:50.178Z,3.97
2019-03-09T17:31:18.392Z,4.43
2019-03-09T17:33:46.544Z,3.40
2019-03-09T17:36:14.736Z,4.27
2019-03-09T17:38:42.865Z,3.20
2019-03-09T17:41:10.984Z,4.57
2019-03-09T17:43:39.116Z,4.47
2019-03-09T17:46:07.220Z,4.40
2019-03-09T17:48:35.408Z,4.23
2019-03-09T17:51:03.566Z,4.93
2019-03-09T17:53:31.757Z,4.30
2019-03-09T17:55:59.940Z,4.50
2019-03-09T17:58:28.054Z,5.03
2019-03-09T18:00:56.288Z,5.23
2019-03-09T18:03:24.391Z,4.70
2019-03-09T18:05:52.624Z,4.90
2019-03-09T18:08:20.795Z,5.10
2019-03-09T18:10:53.393Z,4.73
2019-03-09T18:13:21.498Z,4.60
2019-03-09T18:15:49.624Z,4.90
2019-03-09T18:18:17.900Z,4.67
2019-03-09T18:20:46.292Z,4.70
2019-03-09T18:23:14.396Z,6.23
2019-03-09T18:25:42.599Z,4.73
2019-03-09T18:28:10.783Z,5.33
2019-03-09T18:30:38.904Z,5.20
2019-03-09T18:33:07.107Z,4.77
2019-03-09T18:35:35.253Z,5.43
2019-03-09T18:38:03.637Z,6.27
2019-03-09T18:40:31.780Z,5.10
2019-03-09T18:42:59.892Z,5.70
2019-03-09T18:45:28.080Z,5.30
2019-03-09T18:47:56.212Z,4.47
2019-03-09T18:50:24.423Z,5.80
2019-03-09T18:52:52.567Z,4.87
2019-03-09T18:55:20.678Z,5.23
2019-03-09T18:57:48.911Z,5.27
2019-03-09T19:00:17.781Z,4.97
2019-03-09T19:02:45.971Z,3.93
2019-03-09T19:05:14.159Z,4.53
2019-03-09T19:07:42.297Z,3.87
2019-03-09T19:10:14.327Z,4.00
2019-03-09T19:12:42.455Z,4.70
2019-03-09T19:15:15.011Z,4.17
2019-03-09T19:17:43.131Z,4.03
2019-03-09T19:20:12.825Z,3.20
2019-03-09T19:22:41.030Z,2.47
2019-03-09T19:25:10.428Z,3.57
2019-03-09T19:27:38.594Z,3.33
2019-03-09T19:30:08.241Z,2.90
2019-03-09T19:32:36.480Z,2.87
2019-03-09T19:35:05.663Z,3.97
2019-03-09T19:37:33.865Z,3.63
2019-03-09T19:40:01.977Z,3.73
2019-03-09T19:42:30.104Z,3.13
2019-03-09T19:44:58.239Z,3.30
2019-03-09T19:47:26.360Z,3.93
2019-03-09T19:49:54.494Z,3.13
2019-03-09T19:52:22.653Z,3.33
2019-03-09T19:54:50.854Z,2.70
2019-03-09T19:57:19.029Z,3.20
2019-03-09T19:59:47.183Z,3.40
2019-03-09T20:02:15.392Z,2.93
2019-03-09T20:04:43.579Z,3.67
2019-03-09T20:07:11.796Z,3.10
2019-03-09T20:09:39.990Z,4.07
2019-03-09T20:12:08.251Z,2.97
2019-03-09T20:14:36.448Z,2.93
2019-03-09T20:17:04.639Z,4.17
2019-03-09T20:19:32.779Z,3.60
2019-03-09T20:22:00.888Z,3.57
2019-03-09T20:24:29.000Z,3.50
2019-03-09T20:26:57.137Z,3.40
2019-03-09T20:29:25.260Z,3.43
2019-03-09T20:31:53.465Z,4.17
2019-03-09T20:34:21.568Z,3.67
2019-03-09T20:36:49.742Z,4.03
2019-03-09T20:39:17.984Z,4.03
2019-03-09T20:41:46.258Z,3.97
2019-03-09T20:44:14.373Z,4.47
2019-03-09T20:46:42.507Z,4.93
2019-03-09T20:49:10.627Z,4.00
2019-03-09T20:51:38.827Z,3.97
2019-03-09T20:54:06.957Z,4.93
2019-03-09T20:56:35.132Z,5.20
2019-03-09T20:59:03.279Z,5.10
2019-03-09T21:01:31.432Z,4.00
2019-03-09T21:04:01.065Z,5.53
2019-03-09T21:06:29.507Z,5.50
2019-03-09T21:08:57.631Z,6.53
2019-03-09T21:11:25.764Z,5.20
2019-03-09T21:13:53.907Z,4.50
2019-03-09T21:16:22.052Z,6.03
2019-03-09T21:18:50.259Z,5.73
2019-03-09T21:21:18.475Z,5.43
2019-03-09T21:23:46.671Z,5.13
2019-03-09T21:26:14.790Z,3.90
2019-03-09T21:28:42.958Z,5.67
2019-03-09T21:31:11.203Z,4.17
2019-03-09T21:33:39.342Z,4.83
2019-03-09T21:36:07.659Z,5.10
2019-03-09T21:38:35.857Z,6.07
2019-03-09T21:41:04.144Z,6.33
2019-03-09T21:43:32.356Z,4.87
2019-03-09T21:46:00.810Z,5.40
2019-03-09T21:48:29.017Z,5.77
2019-03-09T21:50:57.256Z,6.90
2019-03-09T21:53:25.429Z,5.73
2019-03-09T21:55:53.704Z,6.40
2019-03-09T21:58:23.500Z,5.80
2019-03-09T22:00:51.629Z,6.87
2019-03-09T22:03:21.727Z,6.87
2019-03-09T22:05:49.628Z,5.83
2019-03-09T22:08:17.804Z,6.27
2019-03-09T22:10:45.924Z,6.60
2019-03-09T22:13:14.060Z,5.27
2019-03-09T22:15:42.169Z,5.37
2019-03-09T22:18:10.321Z,6.20
2019-03-09T22:20:38.457Z,5.90
2019-03-09T22:23:06.662Z,4.90
2019-03-09T22:25:34.845Z,5.40
2019-03-09T22:28:02.998Z,6.73
2019-03-09T22:30:31.113Z,5.93
2019-03-09T22:32:59.322Z,6.33
2019-03-09T22:35:27.441Z,5.03
2019-03-09T22:37:55.685Z,6.70
2019-03-09T22:40:24.089Z,5.27
2019-03-09T22:42:55.137Z,4.97
2019-03-09T22:45:23.256Z,6.00
2019-03-09T22:47:51.641Z,5.83
2019-03-09T22:50:20.488Z,6.00
2019-03-09T22:52:48.651Z,5.53
2019-03-09T22:55:17.236Z,6.17
2019-03-09T22:57:45.418Z,5.10
2019-03-09T23:00:15.089Z,5.10
2019-03-09T23:02:44.888Z,4.87
2019-03-09T23:05:13.393Z,4.83
2019-03-09T23:07:42.216Z,4.73
2019-03-09T23:10:14.638Z,5.50
2019-03-09T23:12:43.831Z,4.63
2019-03-09T23:15:13.122Z,4.60
2019-03-09T23:17:44.009Z,4.60
2019-03-09T23:20:12.937Z,4.17
2019-03-09T23:22:42.781Z,5.10
2019-03-09T23:25:11.928Z,4.40
2019-03-09T23:27:40.109Z,4.30
2019-03-09T23:30:09.818Z,4.07
2019-03-09T23:32:38.067Z,5.10
2019-03-09T23:35:06.525Z,5.40
2019-03-09T23:37:34.662Z,4.03
2019-03-09T23:40:03.054Z,4.77
2019-03-09T23:42:31.221Z,4.60
2019-03-09T23:45:00.321Z,4.10
2019-03-09T23:47:28.544Z,3.73
2019-03-09T23:49:56.829Z,3.83
2019-03-09T23:52:25.344Z,5.23
2019-03-09T23:54:53.470Z,5.57
2019-03-09T23:57:22.115Z,4.93
2019-03-09T23:59:50.367Z,4.03
